Observations for YEOVILTON NAVY, United Kingdom (EGDY)

EGDY 191950Z AUTO 20001KT 9999 NCD 06/05 Q1004  
EGDY 191850Z AUTO 20002KT 9999 NCD 07/05 Q1004  
EGDY 191750Z AUTO 24003KT 9999 NCD 09/06 Q1003  
EGDY 191650Z AUTO 23003KT 9999 NCD 12/07 Q1003  
EGDY 191550Z AUTO 29004KT 9999 FEW021/// SCT050/// 12/06 Q1002 RERA 
EGDY 191450Z AUTO 25004KT 9999 BKN050/// 13/09 Q1002 RERA   
EGDY 191350Z AUTO 28006KT 9999 BKN050/// 13/09 Q1002 RERA   
EGDY 191250Z AUTO 29006KT 9999 RA FEW040/// BKN050/// 11/08 Q1001   
EGDY 191150Z AUTO 32005KT 9999 BKN022/// 13/09 Q1001
EGDY 191050Z AUTO 26009KT 9999 FEW024/// SCT050/// 14/08 Q1000  
EGDY 190950Z AUTO 26008KT 9999 FEW050/// 12/08 Q1000
EGDY 190850Z AUTO 24009KT 9999 SCT050/// 12/08 Q1000
EGDY 190750Z AUTO 22007KT 9999 NCD 09/08 Q0999  
EGDY 190650Z AUTO 27002KT 9999 FEW028/// 07/05 Q0999
EGDY 190550Z AUTO 19004KT 9999 NCD 08/07 Q0999  
EGDY 190450Z AUTO 21005KT 9999 NCD 09/07 Q0998  
EGDY 190350Z AUTO 23007KT 9999 NCD 10/08 Q0998  
EGDY 190250Z AUTO 22006KT 9999 FEW230/// 10/07 Q0998
EGDY 190150Z AUTO 22011KT 9999 BKN210/// 11/08 Q0998
EGDY 190050Z AUTO 22009KT 9999 FEW250/// 11/08 Q0998
EGDY 182350Z AUTO 21011KT 9999 FEW240/// 11/08 Q0998
EGDY 182250Z AUTO 21010KT 9999 FEW070/// 11/08 Q0998
EGDY 182150Z AUTO 21010KT 9999 NCD 11/08 Q0998  
EGDY 182050Z AUTO 22011KT 9999 NCD 12/08 Q0998  
EGDY 181950Z AUTO 22011KT 9999 FEW160/// 12/08 Q0998